sensor_id;sensor_type;location;lat;lon;timestamp;P1;durP1;ratioP1;P2;durP2;ratioP2
70247;SDS011;57641;51.416;5.506;2023-03-01T00:01:59;11.82;;;6.82;;
70247;SDS011;57641;51.416;5.506;2023-03-01T00:04:25;9.73;;;6.43;;
70247;SDS011;57641;51.416;5.506;2023-03-01T00:06:50;11.00;;;6.38;;
70247;SDS011;57641;51.416;5.506;2023-03-01T00:09:16;10.15;;;6.45;;
70247;SDS011;57641;51.416;5.506;2023-03-01T00:11:42;12.55;;;6.38;;
70247;SDS011;57641;51.416;5.506;2023-03-01T00:14:08;10.30;;;6.57;;
70247;SDS011;57641;51.416;5.506;2023-03-01T00:16:38;11.70;;;6.88;;
70247;SDS011;57641;51.416;5.506;2023-03-01T00:19:12;10.52;;;6.53;;
70247;SDS011;57641;51.416;5.506;2023-03-01T00:21:40;10.48;;;6.60;;
70247;SDS011;57641;51.416;5.506;2023-03-01T00:24:06;12.90;;;6.65;;
70247;SDS011;57641;51.416;5.506;2023-03-01T00:26:33;9.15;;;5.78;;
70247;SDS011;57641;51.416;5.506;2023-03-01T00:28:59;12.88;;;7.10;;
70247;SDS011;57641;51.416;5.506;2023-03-01T00:31:27;14.98;;;7.53;;
70247;SDS011;57641;51.416;5.506;2023-03-01T00:33:56;9.75;;;6.45;;
70247;SDS011;57641;51.416;5.506;2023-03-01T00:36:30;13.52;;;6.50;;
70247;SDS011;57641;51.416;5.506;2023-03-01T00:38:58;11.20;;;7.00;;
70247;SDS011;57641;51.416;5.506;2023-03-01T00:41:24;14.43;;;7.35;;
70247;SDS011;57641;51.416;5.506;2023-03-01T00:43:53;12.25;;;7.22;;
70247;SDS011;57641;51.416;5.506;2023-03-01T00:46:20;11.20;;;6.40;;
70247;SDS011;57641;51.416;5.506;2023-03-01T00:48:48;12.32;;;7.32;;
70247;SDS011;57641;51.416;5.506;2023-03-01T00:51:18;12.73;;;6.93;;
70247;SDS011;57641;51.416;5.506;2023-03-01T00:53:53;11.52;;;6.40;;
70247;SDS011;57641;51.416;5.506;2023-03-01T00:56:28;12.07;;;6.90;;
70247;SDS011;57641;51.416;5.506;2023-03-01T00:58:55;13.85;;;7.00;;
70247;SDS011;57641;51.416;5.506;2023-03-01T01:01:21;11.40;;;7.28;;
70247;SDS011;57641;51.416;5.506;2023-03-01T01:03:53;12.88;;;7.13;;
70247;SDS011;57641;51.416;5.506;2023-03-01T01:06:22;11.57;;;6.60;;
70247;SDS011;57641;51.416;5.506;2023-03-01T01:08:51;11.57;;;6.68;;
70247;SDS011;57641;51.416;5.506;2023-03-01T01:11:18;12.15;;;6.80;;
70247;SDS011;57641;51.416;5.506;2023-03-01T01:13:48;13.88;;;7.95;;
70247;SDS011;57641;51.416;5.506;2023-03-01T01:16:15;13.65;;;7.40;;
70247;SDS011;57641;51.416;5.506;2023-03-01T01:18:42;11.35;;;7.25;;
70247;SDS011;57641;51.416;5.506;2023-03-01T01:21:10;10.30;;;6.35;;
70247;SDS011;57641;51.416;5.506;2023-03-01T01:23:38;10.98;;;6.75;;
70247;SDS011;57641;51.416;5.506;2023-03-01T01:26:05;12.98;;;6.60;;
70247;SDS011;57641;51.416;5.506;2023-03-01T01:28:39;13.37;;;7.20;;
70247;SDS011;57641;51.416;5.506;2023-03-01T01:31:05;12.27;;;7.53;;
70247;SDS011;57641;51.416;5.506;2023-03-01T01:33:31;13.27;;;6.83;;
70247;SDS011;57641;51.416;5.506;2023-03-01T01:35:58;11.40;;;6.82;;
70247;SDS011;57641;51.416;5.506;2023-03-01T01:38:24;10.85;;;6.72;;
70247;SDS011;57641;51.416;5.506;2023-03-01T01:40:50;12.63;;;6.87;;
70247;SDS011;57641;51.416;5.506;2023-03-01T01:43:23;10.93;;;6.53;;
70247;SDS011;57641;51.416;5.506;2023-03-01T01:45:52;12.43;;;6.50;;
70247;SDS011;57641;51.416;5.506;2023-03-01T01:48:27;10.15;;;6.25;;
70247;SDS011;57641;51.416;5.506;2023-03-01T01:51:06;12.33;;;6.47;;
70247;SDS011;57641;51.416;5.506;2023-03-01T01:53:36;12.43;;;6.72;;
70247;SDS011;57641;51.416;5.506;2023-03-01T01:56:03;9.35;;;6.20;;
70247;SDS011;57641;51.416;5.506;2023-03-01T01:58:32;10.43;;;6.25;;
70247;SDS011;57641;51.416;5.506;2023-03-01T02:00:58;10.10;;;6.07;;
70247;SDS011;57641;51.416;5.506;2023-03-01T02:03:27;12.37;;;6.57;;
70247;SDS011;57641;51.416;5.506;2023-03-01T02:08:59;9.65;;;6.03;;
70247;SDS011;57641;51.416;5.506;2023-03-01T02:11:30;10.95;;;6.95;;
70247;SDS011;57641;51.416;5.506;2023-03-01T02:13:56;9.10;;;5.93;;
70247;SDS011;57641;51.416;5.506;2023-03-01T02:16:22;10.23;;;6.20;;
70247;SDS011;57641;51.416;5.506;2023-03-01T02:18:47;13.27;;;6.97;;
70247;SDS011;57641;51.416;5.506;2023-03-01T02:21:23;12.13;;;6.60;;
70247;SDS011;57641;51.416;5.506;2023-03-01T02:24:06;10.50;;;6.17;;
70247;SDS011;57641;51.416;5.506;2023-03-01T02:26:50;10.30;;;6.57;;
70247;SDS011;57641;51.416;5.506;2023-03-01T02:29:20;11.70;;;6.00;;
70247;SDS011;57641;51.416;5.506;2023-03-01T02:31:47;14.43;;;6.40;;
70247;SDS011;57641;51.416;5.506;2023-03-01T02:34:17;11.80;;;6.30;;
70247;SDS011;57641;51.416;5.506;2023-03-01T02:36:47;9.57;;;5.73;;
70247;SDS011;57641;51.416;5.506;2023-03-01T02:39:20;10.07;;;6.38;;
70247;SDS011;57641;51.416;5.506;2023-03-01T02:41:54;11.43;;;6.73;;
70247;SDS011;57641;51.416;5.506;2023-03-01T02:44:21;10.67;;;6.40;;
70247;SDS011;57641;51.416;5.506;2023-03-01T02:46:49;11.90;;;6.70;;
70247;SDS011;57641;51.416;5.506;2023-03-01T02:49:22;11.83;;;6.20;;
70247;SDS011;57641;51.416;5.506;2023-03-01T02:56:59;10.13;;;6.47;;
70247;SDS011;57641;51.416;5.506;2023-03-01T02:59:27;12.97;;;6.23;;
70247;SDS011;57641;51.416;5.506;2023-03-01T03:01:56;12.63;;;6.50;;
70247;SDS011;57641;51.416;5.506;2023-03-01T03:04:28;8.88;;;6.00;;
70247;SDS011;57641;51.416;5.506;2023-03-01T03:06:53;17.13;;;6.40;;
70247;SDS011;57641;51.416;5.506;2023-03-01T03:09:19;9.20;;;6.47;;
70247;SDS011;57641;51.416;5.506;2023-03-01T03:11:45;10.37;;;6.33;;
70247;SDS011;57641;51.416;5.506;2023-03-01T03:14:12;9.83;;;6.27;;
70247;SDS011;57641;51.416;5.506;2023-03-01T03:16:43;11.60;;;6.10;;
70247;SDS011;57641;51.416;5.506;2023-03-01T03:19:11;11.05;;;6.47;;
70247;SDS011;57641;51.416;5.506;2023-03-01T03:21:37;9.97;;;6.13;;
70247;SDS011;57641;51.416;5.506;2023-03-01T03:24:12;11.07;;;6.07;;
70247;SDS011;57641;51.416;5.506;2023-03-01T03:26:38;11.33;;;5.97;;
70247;SDS011;57641;51.416;5.506;2023-03-01T03:29:03;12.25;;;6.68;;
70247;SDS011;57641;51.416;5.506;2023-03-01T03:31:29;12.10;;;6.50;;
70247;SDS011;57641;51.416;5.506;2023-03-01T03:33:54;13.60;;;6.60;;
70247;SDS011;57641;51.416;5.506;2023-03-01T03:36:22;13.00;;;6.63;;
70247;SDS011;57641;51.416;5.506;2023-03-01T03:38:50;13.17;;;7.17;;
70247;SDS011;57641;51.416;5.506;2023-03-01T03:41:16;10.90;;;6.83;;
70247;SDS011;57641;51.416;5.506;2023-03-01T03:43:43;11.97;;;6.93;;
70247;SDS011;57641;51.416;5.506;2023-03-01T03:46:10;12.97;;;6.57;;
70247;SDS011;57641;51.416;5.506;2023-03-01T03:48:38;11.13;;;6.37;;
70247;SDS011;57641;51.416;5.506;2023-03-01T03:51:06;12.03;;;6.30;;
70247;SDS011;57641;51.416;5.506;2023-03-01T03:53:35;12.00;;;6.70;;
70247;SDS011;57641;51.416;5.506;2023-03-01T03:56:01;11.77;;;6.87;;
70247;SDS011;57641;51.416;5.506;2023-03-01T03:58:27;11.10;;;6.63;;
70247;SDS011;57641;51.416;5.506;2023-03-01T04:00:53;12.30;;;6.83;;
70247;SDS011;57641;51.416;5.506;2023-03-01T04:03:21;10.20;;;6.77;;
70247;SDS011;57641;51.416;5.506;2023-03-01T04:05:48;13.87;;;6.67;;
70247;SDS011;57641;51.416;5.506;2023-03-01T04:08:17;10.70;;;6.23;;
70247;SDS011;57641;51.416;5.506;2023-03-01T04:10:47;11.43;;;6.67;;
70247;SDS011;57641;51.416;5.506;2023-03-01T04:13:15;11.47;;;6.87;;
70247;SDS011;57641;51.416;5.506;2023-03-01T04:15:45;11.17;;;6.73;;
70247;SDS011;57641;51.416;5.506;2023-03-01T04:18:14;11.77;;;7.13;;
70247;SDS011;57641;51.416;5.506;2023-03-01T04:20:42;10.93;;;6.30;;
70247;SDS011;57641;51.416;5.506;2023-03-01T04:23:09;12.23;;;6.57;;
70247;SDS011;57641;51.416;5.506;2023-03-01T04:25:46;11.07;;;6.17;;
70247;SDS011;57641;51.416;5.506;2023-03-01T04:28:14;10.83;;;6.97;;
70247;SDS011;57641;51.416;5.506;2023-03-01T04:30:40;11.73;;;7.43;;
70247;SDS011;57641;51.416;5.506;2023-03-01T04:33:07;13.43;;;7.70;;
70247;SDS011;57641;51.416;5.506;2023-03-01T04:35:34;15.07;;;7.37;;
70247;SDS011;57641;51.416;5.506;2023-03-01T04:38:01;16.53;;;7.20;;
70247;SDS011;57641;51.416;5.506;2023-03-01T04:40:27;12.20;;;7.27;;
70247;SDS011;57641;51.416;5.506;2023-03-01T04:42:53;11.73;;;7.10;;
70247;SDS011;57641;51.416;5.506;2023-03-01T04:45:19;10.63;;;6.70;;
70247;SDS011;57641;51.416;5.506;2023-03-01T04:47:46;10.50;;;6.77;;
70247;SDS011;57641;51.416;5.506;2023-03-01T04:50:13;11.37;;;6.83;;
70247;SDS011;57641;51.416;5.506;2023-03-01T04:52:41;12.50;;;7.00;;
70247;SDS011;57641;51.416;5.506;2023-03-01T04:55:07;10.43;;;7.43;;
70247;SDS011;57641;51.416;5.506;2023-03-01T04:57:33;12.20;;;6.63;;
70247;SDS011;57641;51.416;5.506;2023-03-01T05:00:04;12.50;;;6.40;;
70247;SDS011;57641;51.416;5.506;2023-03-01T05:03:06;13.93;;;7.00;;
70247;SDS011;57641;51.416;5.506;2023-03-01T05:05:34;10.87;;;6.63;;
70247;SDS011;57641;51.416;5.506;2023-03-01T05:08:03;14.00;;;6.87;;
70247;SDS011;57641;51.416;5.506;2023-03-01T05:10:31;10.67;;;6.40;;
70247;SDS011;57641;51.416;5.506;2023-03-01T05:13:00;11.73;;;6.80;;
70247;SDS011;57641;51.416;5.506;2023-03-01T05:15:27;12.80;;;6.73;;
70247;SDS011;57641;51.416;5.506;2023-03-01T05:17:55;13.80;;;7.03;;
70247;SDS011;57641;51.416;5.506;2023-03-01T05:20:24;11.30;;;6.37;;
70247;SDS011;57641;51.416;5.506;2023-03-01T05:22:57;11.90;;;6.53;;
70247;SDS011;57641;51.416;5.506;2023-03-01T05:25:25;11.77;;;6.67;;
70247;SDS011;57641;51.416;5.506;2023-03-01T05:27:51;13.47;;;6.87;;
70247;SDS011;57641;51.416;5.506;2023-03-01T05:30:17;12.23;;;7.00;;
70247;SDS011;57641;51.416;5.506;2023-03-01T05:32:44;14.30;;;7.70;;
70247;SDS011;57641;51.416;5.506;2023-03-01T05:35:12;12.83;;;7.27;;
70247;SDS011;57641;51.416;5.506;2023-03-01T05:37:40;11.43;;;6.90;;
70247;SDS011;57641;51.416;5.506;2023-03-01T05:40:09;14.30;;;7.13;;
70247;SDS011;57641;51.416;5.506;2023-03-01T05:42:47;13.77;;;7.03;;
70247;SDS011;57641;51.416;5.506;2023-03-01T05:45:14;12.00;;;7.53;;
70247;SDS011;57641;51.416;5.506;2023-03-01T05:47:43;10.53;;;6.60;;
70247;SDS011;57641;51.416;5.506;2023-03-01T05:52:45;13.83;;;7.20;;
70247;SDS011;57641;51.416;5.506;2023-03-01T05:58:01;15.13;;;6.57;;
70247;SDS011;57641;51.416;5.506;2023-03-01T06:00:29;13.43;;;6.90;;
70247;SDS011;57641;51.416;5.506;2023-03-01T06:02:55;13.03;;;7.03;;
70247;SDS011;57641;51.416;5.506;2023-03-01T06:05:22;13.33;;;7.57;;
70247;SDS011;57641;51.416;5.506;2023-03-01T06:07:49;15.73;;;7.37;;
70247;SDS011;57641;51.416;5.506;2023-03-01T06:10:16;12.70;;;6.57;;
70247;SDS011;57641;51.416;5.506;2023-03-01T06:12:43;14.27;;;6.90;;
70247;SDS011;57641;51.416;5.506;2023-03-01T06:15:10;13.40;;;7.10;;
70247;SDS011;57641;51.416;5.506;2023-03-01T06:17:40;13.43;;;7.10;;
70247;SDS011;57641;51.416;5.506;2023-03-01T06:20:14;13.07;;;6.93;;
70247;SDS011;57641;51.416;5.506;2023-03-01T06:22:41;12.37;;;7.47;;
70247;SDS011;57641;51.416;5.506;2023-03-01T06:25:08;13.47;;;7.37;;
70247;SDS011;57641;51.416;5.506;2023-03-01T06:27:35;13.33;;;7.83;;
70247;SDS011;57641;51.416;5.506;2023-03-01T06:30:02;14.13;;;7.93;;
70247;SDS011;57641;51.416;5.506;2023-03-01T06:32:28;12.50;;;7.20;;
70247;SDS011;57641;51.416;5.506;2023-03-01T06:34:53;13.20;;;7.60;;
70247;SDS011;57641;51.416;5.506;2023-03-01T06:37:19;15.27;;;7.87;;
70247;SDS011;57641;51.416;5.506;2023-03-01T06:39:45;13.47;;;8.40;;
70247;SDS011;57641;51.416;5.506;2023-03-01T06:42:10;13.00;;;7.40;;
70247;SDS011;57641;51.416;5.506;2023-03-01T06:44:36;12.87;;;7.47;;
70247;SDS011;57641;51.416;5.506;2023-03-01T06:47:02;13.43;;;7.33;;
70247;SDS011;57641;51.416;5.506;2023-03-01T06:49:29;14.03;;;7.37;;
70247;SDS011;57641;51.416;5.506;2023-03-01T06:51:55;14.77;;;7.03;;
70247;SDS011;57641;51.416;5.506;2023-03-01T06:54:21;12.43;;;6.90;;
70247;SDS011;57641;51.416;5.506;2023-03-01T06:56:47;15.33;;;7.40;;
70247;SDS011;57641;51.416;5.506;2023-03-01T06:59:14;13.17;;;6.77;;
70247;SDS011;57641;51.416;5.506;2023-03-01T07:01:40;16.07;;;7.43;;
70247;SDS011;57641;51.416;5.506;2023-03-01T07:04:06;13.07;;;7.17;;
70247;SDS011;57641;51.416;5.506;2023-03-01T07:06:32;14.33;;;7.87;;
70247;SDS011;57641;51.416;5.506;2023-03-01T07:08:57;13.47;;;7.13;;
70247;SDS011;57641;51.416;5.506;2023-03-01T07:11:23;13.93;;;7.43;;
70247;SDS011;57641;51.416;5.506;2023-03-01T07:13:49;14.00;;;7.73;;
70247;SDS011;57641;51.416;5.506;2023-03-01T07:16:14;13.10;;;7.03;;
70247;SDS011;57641;51.416;5.506;2023-03-01T07:18:40;12.85;;;7.60;;
70247;SDS011;57641;51.416;5.506;2023-03-01T07:21:06;14.37;;;7.73;;
70247;SDS011;57641;51.416;5.506;2023-03-01T07:23:33;13.00;;;7.50;;
70247;SDS011;57641;51.416;5.506;2023-03-01T07:25:59;19.30;;;8.00;;
70247;SDS011;57641;51.416;5.506;2023-03-01T07:28:25;12.77;;;7.80;;
70247;SDS011;57641;51.416;5.506;2023-03-01T07:30:52;14.47;;;7.63;;
70247;SDS011;57641;51.416;5.506;2023-03-01T07:33:18;14.13;;;7.93;;
70247;SDS011;57641;51.416;5.506;2023-03-01T07:35:44;12.77;;;7.30;;
70247;SDS011;57641;51.416;5.506;2023-03-01T07:38:09;13.20;;;7.63;;
70247;SDS011;57641;51.416;5.506;2023-03-01T07:40:35;14.33;;;8.47;;
70247;SDS011;57641;51.416;5.506;2023-03-01T07:43:01;14.87;;;7.30;;
70247;SDS011;57641;51.416;5.506;2023-03-01T07:45:27;12.27;;;7.27;;
70247;SDS011;57641;51.416;5.506;2023-03-01T07:47:53;16.57;;;7.37;;
70247;SDS011;57641;51.416;5.506;2023-03-01T07:50:22;14.73;;;7.33;;
70247;SDS011;57641;51.416;5.506;2023-03-01T07:52:48;15.33;;;7.00;;
70247;SDS011;57641;51.416;5.506;2023-03-01T07:55:14;12.63;;;7.00;;
70247;SDS011;57641;51.416;5.506;2023-03-01T07:57:41;14.60;;;7.83;;
70247;SDS011;57641;51.416;5.506;2023-03-01T08:00:07;14.07;;;7.57;;
70247;SDS011;57641;51.416;5.506;2023-03-01T08:02:36;14.07;;;7.10;;
70247;SDS011;57641;51.416;5.506;2023-03-01T08:05:02;10.90;;;6.83;;
70247;SDS011;57641;51.416;5.506;2023-03-01T08:07:27;13.30;;;7.67;;
70247;SDS011;57641;51.416;5.506;2023-03-01T08:09:53;14.47;;;8.50;;
70247;SDS011;57641;51.416;5.506;2023-03-01T08:12:18;13.97;;;7.13;;
70247;SDS011;57641;51.416;5.506;2023-03-01T08:14:44;13.13;;;7.83;;
70247;SDS011;57641;51.416;5.506;2023-03-01T08:17:09;12.30;;;7.63;;
70247;SDS011;57641;51.416;5.506;2023-03-01T08:19:35;16.37;;;7.93;;
70247;SDS011;57641;51.416;5.506;2023-03-01T08:22:01;12.70;;;7.47;;
70247;SDS011;57641;51.416;5.506;2023-03-01T08:24:27;13.27;;;7.73;;
70247;SDS011;57641;51.416;5.506;2023-03-01T08:26:53;14.48;;;8.15;;
70247;SDS011;57641;51.416;5.506;2023-03-01T08:29:19;13.13;;;7.53;;
70247;SDS011;57641;51.416;5.506;2023-03-01T08:31:45;14.27;;;8.10;;
70247;SDS011;57641;51.416;5.506;2023-03-01T08:34:13;13.20;;;7.10;;
70247;SDS011;57641;51.416;5.506;2023-03-01T08:36:41;14.68;;;7.70;;
70247;SDS011;57641;51.416;5.506;2023-03-01T08:39:08;13.67;;;7.40;;
70247;SDS011;57641;51.416;5.506;2023-03-01T08:41:36;13.30;;;6.90;;
70247;SDS011;57641;51.416;5.506;2023-03-01T08:44:05;13.33;;;6.57;;
70247;SDS011;57641;51.416;5.506;2023-03-01T08:46:35;11.07;;;6.35;;
70247;SDS011;57641;51.416;5.506;2023-03-01T08:49:06;11.13;;;6.67;;
70247;SDS011;57641;51.416;5.506;2023-03-01T08:51:34;12.07;;;6.63;;
70247;SDS011;57641;51.416;5.506;2023-03-01T08:54:05;10.65;;;6.43;;
70247;SDS011;57641;51.416;5.506;2023-03-01T08:56:32;8.55;;;5.05;;
70247;SDS011;57641;51.416;5.506;2023-03-01T08:58:59;10.30;;;6.60;;
70247;SDS011;57641;51.416;5.506;2023-03-01T09:01:25;9.80;;;6.20;;
70247;SDS011;57641;51.416;5.506;2023-03-01T09:03:50;10.73;;;6.40;;
70247;SDS011;57641;51.416;5.506;2023-03-01T09:06:16;10.00;;;6.30;;
70247;SDS011;57641;51.416;5.506;2023-03-01T09:08:43;10.50;;;5.82;;
70247;SDS011;57641;51.416;5.506;2023-03-01T09:11:11;9.95;;;6.40;;
70247;SDS011;57641;51.416;5.506;2023-03-01T09:13:40;9.13;;;5.68;;
70247;SDS011;57641;51.416;5.506;2023-03-01T09:16:06;9.70;;;6.47;;
70247;SDS011;57641;51.416;5.506;2023-03-01T09:18:33;9.98;;;6.05;;
70247;SDS011;57641;51.416;5.506;2023-03-01T09:23:32;11.75;;;6.07;;
70247;SDS011;57641;51.416;5.506;2023-03-01T09:26:03;12.45;;;6.15;;
70247;SDS011;57641;51.416;5.506;2023-03-01T09:28:29;10.80;;;6.60;;
70247;SDS011;57641;51.416;5.506;2023-03-01T09:30:57;8.25;;;4.88;;
70247;SDS011;57641;51.416;5.506;2023-03-01T09:33:24;10.80;;;5.78;;
70247;SDS011;57641;51.416;5.506;2023-03-01T09:35:55;9.80;;;5.80;;
70247;SDS011;57641;51.416;5.506;2023-03-01T09:38:32;10.13;;;5.70;;
70247;SDS011;57641;51.416;5.506;2023-03-01T09:40:59;11.55;;;6.13;;
70247;SDS011;57641;51.416;5.506;2023-03-01T09:46:19;10.40;;;5.90;;
70247;SDS011;57641;51.416;5.506;2023-03-01T09:48:52;10.80;;;6.55;;
70247;SDS011;57641;51.416;5.506;2023-03-01T09:51:24;11.60;;;6.72;;
70247;SDS011;57641;51.416;5.506;2023-03-01T09:53:54;10.57;;;6.60;;
70247;SDS011;57641;51.416;5.506;2023-03-01T09:56:24;12.95;;;7.13;;
70247;SDS011;57641;51.416;5.506;2023-03-01T09:58:56;13.32;;;6.95;;
70247;SDS011;57641;51.416;5.506;2023-03-01T10:01:35;12.32;;;6.95;;
70247;SDS011;57641;51.416;5.506;2023-03-01T10:07:05;14.27;;;7.15;;
70247;SDS011;57641;51.416;5.506;2023-03-01T10:09:39;14.43;;;7.25;;
70247;SDS011;57641;51.416;5.506;2023-03-01T10:12:14;13.70;;;6.82;;
70247;SDS011;57641;51.416;5.506;2023-03-01T10:14:49;13.95;;;6.95;;
70247;SDS011;57641;51.416;5.506;2023-03-01T10:19:51;11.90;;;6.53;;
70247;SDS011;57641;51.416;5.506;2023-03-01T10:22:20;11.85;;;6.78;;
70247;SDS011;57641;51.416;5.506;2023-03-01T10:24:46;12.25;;;6.18;;
70247;SDS011;57641;51.416;5.506;2023-03-01T10:30:09;12.25;;;6.90;;
70247;SDS011;57641;51.416;5.506;2023-03-01T10:32:46;10.05;;;6.72;;
70247;SDS011;57641;51.416;5.506;2023-03-01T10:35:20;11.73;;;6.40;;
70247;SDS011;57641;51.416;5.506;2023-03-01T10:40:24;11.82;;;6.55;;
70247;SDS011;57641;51.416;5.506;2023-03-01T10:42:50;12.45;;;7.15;;
70247;SDS011;57641;51.416;5.506;2023-03-01T10:45:17;15.90;;;7.47;;
70247;SDS011;57641;51.416;5.506;2023-03-01T10:47:53;12.88;;;6.82;;
70247;SDS011;57641;51.416;5.506;2023-03-01T10:50:37;12.98;;;6.28;;
70247;SDS011;57641;51.416;5.506;2023-03-01T10:53:05;13.40;;;6.40;;
70247;SDS011;57641;51.416;5.506;2023-03-01T10:55:41;11.73;;;7.00;;
70247;SDS011;57641;51.416;5.506;2023-03-01T11:00:49;12.82;;;6.85;;
70247;SDS011;57641;51.416;5.506;2023-03-01T11:03:21;10.73;;;6.35;;
70247;SDS011;57641;51.416;5.506;2023-03-01T11:08:37;9.50;;;6.38;;
70247;SDS011;57641;51.416;5.506;2023-03-01T11:11:24;11.57;;;6.45;;
70247;SDS011;57641;51.416;5.506;2023-03-01T11:13:57;12.65;;;6.47;;
70247;SDS011;57641;51.416;5.506;2023-03-01T11:16:34;11.60;;;6.60;;
70247;SDS011;57641;51.416;5.506;2023-03-01T11:21:59;11.30;;;6.60;;
70247;SDS011;57641;51.416;5.506;2023-03-01T11:24:39;12.73;;;6.88;;
70247;SDS011;57641;51.416;5.506;2023-03-01T11:27:18;10.00;;;5.93;;
70247;SDS011;57641;51.416;5.506;2023-03-01T11:30:07;10.25;;;6.28;;
70247;SDS011;57641;51.416;5.506;2023-03-01T11:32:55;11.15;;;6.40;;
70247;SDS011;57641;51.416;5.506;2023-03-01T11:35:41;13.30;;;6.63;;
70247;SDS011;57641;51.416;5.506;2023-03-01T11:40:50;10.38;;;6.35;;
70247;SDS011;57641;51.416;5.506;2023-03-01T11:48:59;10.40;;;5.75;;
70247;SDS011;57641;51.416;5.506;2023-03-01T11:51:59;10.02;;;5.72;;
70247;SDS011;57641;51.416;5.506;2023-03-01T12:16:20;9.88;;;5.32;;
70247;SDS011;57641;51.416;5.506;2023-03-01T12:18:57;9.30;;;5.38;;
70247;SDS011;57641;51.416;5.506;2023-03-01T12:21:42;9.73;;;5.63;;
70247;SDS011;57641;51.416;5.506;2023-03-01T12:26:53;13.68;;;5.55;;
70247;SDS011;57641;51.416;5.506;2023-03-01T12:37:58;7.90;;;4.95;;
70247;SDS011;57641;51.416;5.506;2023-03-01T12:46:10;10.43;;;5.30;;
70247;SDS011;57641;51.416;5.506;2023-03-01T12:49:08;8.50;;;5.45;;
70247;SDS011;57641;51.416;5.506;2023-03-01T12:51:38;8.70;;;5.03;;
70247;SDS011;57641;51.416;5.506;2023-03-01T12:54:07;9.55;;;5.70;;
70247;SDS011;57641;51.416;5.506;2023-03-01T12:56:41;8.15;;;5.15;;
70247;SDS011;57641;51.416;5.506;2023-03-01T13:01:52;9.13;;;5.10;;
70247;SDS011;57641;51.416;5.506;2023-03-01T13:04:39;8.23;;;5.25;;
70247;SDS011;57641;51.416;5.506;2023-03-01T13:07:29;12.00;;;5.35;;
70247;SDS011;57641;51.416;5.506;2023-03-01T13:15:36;8.40;;;5.03;;
70247;SDS011;57641;51.416;5.506;2023-03-01T13:20:54;9.75;;;5.75;;
70247;SDS011;57641;51.416;5.506;2023-03-01T13:31:03;8.55;;;4.72;;
70247;SDS011;57641;51.416;5.506;2023-03-01T13:35:56;9.32;;;5.40;;
70247;SDS011;57641;51.416;5.506;2023-03-01T13:41:14;9.52;;;5.22;;
70247;SDS011;57641;51.416;5.506;2023-03-01T13:43:43;8.45;;;5.60;;
70247;SDS011;57641;51.416;5.506;2023-03-01T13:48:45;9.82;;;5.28;;
70247;SDS011;57641;51.416;5.506;2023-03-01T13:51:16;7.47;;;5.38;;
70247;SDS011;57641;51.416;5.506;2023-03-01T13:53:49;7.57;;;4.72;;
70247;SDS011;57641;51.416;5.506;2023-03-01T13:56:20;7.78;;;5.13;;
70247;SDS011;57641;51.416;5.506;2023-03-01T13:58:52;7.78;;;4.65;;
70247;SDS011;57641;51.416;5.506;2023-03-01T14:01:54;10.18;;;5.88;;
70247;SDS011;57641;51.416;5.506;2023-03-01T14:04:25;6.95;;;4.85;;
70247;SDS011;57641;51.416;5.506;2023-03-01T14:07:12;9.27;;;5.15;;
70247;SDS011;57641;51.416;5.506;2023-03-01T14:09:43;6.10;;;3.97;;
70247;SDS011;57641;51.416;5.506;2023-03-01T14:12:16;8.00;;;4.90;;
70247;SDS011;57641;51.416;5.506;2023-03-01T14:14:52;7.88;;;4.32;;
70247;SDS011;57641;51.416;5.506;2023-03-01T14:17:24;9.25;;;5.05;;
70247;SDS011;57641;51.416;5.506;2023-03-01T14:20:14;7.50;;;4.70;;
70247;SDS011;57641;51.416;5.506;2023-03-01T14:22:43;9.18;;;4.15;;
70247;SDS011;57641;51.416;5.506;2023-03-01T14:28:34;10.65;;;5.50;;
70247;SDS011;57641;51.416;5.506;2023-03-01T14:30:54;7.03;;;4.53;;
70247;SDS011;57641;51.416;5.506;2023-03-01T14:36:05;7.95;;;4.63;;
70247;SDS011;57641;51.416;5.506;2023-03-01T14:38:37;8.20;;;4.88;;
70247;SDS011;57641;51.416;5.506;2023-03-01T14:41:18;8.80;;;4.55;;
70247;SDS011;57641;51.416;5.506;2023-03-01T14:43:46;8.27;;;4.93;;
70247;SDS011;57641;51.416;5.506;2023-03-01T14:46:26;9.70;;;5.30;;
70247;SDS011;57641;51.416;5.506;2023-03-01T14:49:04;8.10;;;5.13;;
70247;SDS011;57641;51.416;5.506;2023-03-01T14:52:06;10.07;;;5.88;;
70247;SDS011;57641;51.416;5.506;2023-03-01T14:54:39;14.00;;;6.78;;
70247;SDS011;57641;51.416;5.506;2023-03-01T14:57:21;8.82;;;5.25;;
70247;SDS011;57641;51.416;5.506;2023-03-01T14:59:53;8.77;;;5.15;;
70247;SDS011;57641;51.416;5.506;2023-03-01T15:02:21;10.32;;;5.18;;
70247;SDS011;57641;51.416;5.506;2023-03-01T15:04:50;9.30;;;5.57;;
70247;SDS011;57641;51.416;5.506;2023-03-01T15:07:21;10.30;;;5.82;;
70247;SDS011;57641;51.416;5.506;2023-03-01T15:09:51;8.52;;;5.28;;
70247;SDS011;57641;51.416;5.506;2023-03-01T15:12:39;8.35;;;5.38;;
70247;SDS011;57641;51.416;5.506;2023-03-01T15:15:21;10.35;;;5.47;;
70247;SDS011;57641;51.416;5.506;2023-03-01T15:17:55;8.02;;;4.85;;
70247;SDS011;57641;51.416;5.506;2023-03-01T15:20:27;8.73;;;5.20;;
70247;SDS011;57641;51.416;5.506;2023-03-01T15:22:56;7.10;;;4.55;;
70247;SDS011;57641;51.416;5.506;2023-03-01T15:25:27;9.23;;;5.05;;
70247;SDS011;57641;51.416;5.506;2023-03-01T15:27:55;8.48;;;4.85;;
70247;SDS011;57641;51.416;5.506;2023-03-01T15:30:23;9.65;;;5.05;;
70247;SDS011;57641;51.416;5.506;2023-03-01T15:36:01;10.57;;;5.07;;
70247;SDS011;57641;51.416;5.506;2023-03-01T15:38:36;9.63;;;5.93;;
70247;SDS011;57641;51.416;5.506;2023-03-01T15:41:27;7.97;;;5.40;;
70247;SDS011;57641;51.416;5.506;2023-03-01T15:43:58;8.88;;;4.57;;
70247;SDS011;57641;51.416;5.506;2023-03-01T15:49:00;9.68;;;5.68;;
70247;SDS011;57641;51.416;5.506;2023-03-01T15:51:29;14.05;;;5.95;;
70247;SDS011;57641;51.416;5.506;2023-03-01T15:54:01;11.63;;;5.97;;
70247;SDS011;57641;51.416;5.506;2023-03-01T15:56:30;8.82;;;5.40;;
70247;SDS011;57641;51.416;5.506;2023-03-01T15:59:00;10.70;;;5.68;;
70247;SDS011;57641;51.416;5.506;2023-03-01T16:01:27;10.80;;;5.45;;
70247;SDS011;57641;51.416;5.506;2023-03-01T16:03:53;8.45;;;5.45;;
70247;SDS011;57641;51.416;5.506;2023-03-01T16:06:19;11.27;;;5.65;;
70247;SDS011;57641;51.416;5.506;2023-03-01T16:08:44;9.98;;;5.60;;
70247;SDS011;57641;51.416;5.506;2023-03-01T16:11:14;11.40;;;5.82;;
70247;SDS011;57641;51.416;5.506;2023-03-01T16:13:42;7.97;;;5.45;;
70247;SDS011;57641;51.416;5.506;2023-03-01T16:16:12;13.77;;;5.50;;
70247;SDS011;57641;51.416;5.506;2023-03-01T16:18:45;9.07;;;5.65;;
70247;SDS011;57641;51.416;5.506;2023-03-01T16:21:29;9.13;;;5.75;;
70247;SDS011;57641;51.416;5.506;2023-03-01T16:23:55;10.15;;;5.25;;
70247;SDS011;57641;51.416;5.506;2023-03-01T16:26:21;11.20;;;5.53;;
70247;SDS011;57641;51.416;5.506;2023-03-01T16:28:46;10.10;;;5.35;;
70247;SDS011;57641;51.416;5.506;2023-03-01T16:31:15;10.93;;;5.55;;
70247;SDS011;57641;51.416;5.506;2023-03-01T16:33:43;9.63;;;6.00;;
70247;SDS011;57641;51.416;5.506;2023-03-01T16:36:14;10.00;;;6.25;;
70247;SDS011;57641;51.416;5.506;2023-03-01T16:38:43;10.70;;;5.82;;
70247;SDS011;57641;51.416;5.506;2023-03-01T16:41:11;11.02;;;6.40;;
70247;SDS011;57641;51.416;5.506;2023-03-01T16:43:38;10.63;;;5.80;;
70247;SDS011;57641;51.416;5.506;2023-03-01T16:46:11;9.70;;;6.13;;
70247;SDS011;57641;51.416;5.506;2023-03-01T16:48:38;10.68;;;5.78;;
70247;SDS011;57641;51.416;5.506;2023-03-01T16:51:04;11.20;;;6.38;;
70247;SDS011;57641;51.416;5.506;2023-03-01T16:53:31;10.63;;;6.30;;
70247;SDS011;57641;51.416;5.506;2023-03-01T16:55:57;11.10;;;6.55;;
70247;SDS011;57641;51.416;5.506;2023-03-01T16:58:24;10.80;;;6.35;;